Houston Lake, Missouri
Current Conditions -  °F | °C
As of 2:54 PM on Sunday 23 Nov 2014 (Local Time) from KMKC Reporting Station
Haze Haze  
Wind Chill: 14°   Ceiling: 1500
Heat Index: 14°   Visibility: 4mi
Dew Point: 12°   Wind: 5mph
Humidity: 89%   Direction: 330°NNW
Pressure: 29.33"   Gusts: NA
Location:  39.2125°N, 94.6296°W
Report Text: KMKC 232054Z 33004KT 4SM BR SCT006 BKN015 OVC022 14/12 A2933 RMK AO2 RAE1957B19E54 SLP930 P0000 60000 T01390122 56026
Loading
Personal Weather Stations






























Interactive Weather Map New forecast layout! Learn more

10-Day Weather Forecast

Advertisements
Track Severe Weather on mobile